createdAt,value
2019-05-22T00:04:18.457Z,100.0000
2019-05-22T00:44:59.430Z,100.0000
2019-05-22T01:23:38.538Z,100.0000
2019-05-22T01:33:48.433Z,100.0000
2019-05-22T02:02:18.465Z,100.0000
2019-05-22T02:10:28.438Z,100.0000
2019-05-22T02:38:57.758Z,100.0000
2019-05-22T02:49:08.503Z,100.0000
2019-05-22T03:07:28.461Z,100.0000
2019-05-22T03:17:40.292Z,100.0000
2019-05-22T03:56:20.669Z,100.0000
2019-05-22T03:58:23.430Z,100.0000
2019-05-22T04:02:28.431Z,100.0000
2019-05-22T04:10:41.055Z,100.0000
2019-05-22T04:49:19.502Z,100.0000
2019-05-22T04:57:28.488Z,100.0000
2019-05-22T05:11:48.720Z,100.0000
2019-05-22T05:19:58.528Z,100.0000
2019-05-22T06:00:44.487Z,83.4333
2019-05-22T06:04:49.592Z,77.7386
2019-05-22T06:12:58.472Z,74.7066
2019-05-22T06:17:08.560Z,76.1578
2019-05-22T06:27:18.445Z,85.8488
2019-05-22T06:35:27.771Z,72.8435
2019-05-22T06:45:38.570Z,67.4495
2019-05-22T07:14:08.491Z,81.3870
2019-05-22T07:22:18.823Z,70.4433
2019-05-22T08:11:08.506Z,57.5998
2019-05-22T08:29:29.503Z,52.9244
2019-05-22T08:33:36.021Z,51.2627
2019-05-22T08:39:43.446Z,49.9626
2019-05-22T08:44:13.604Z,49.0288
2019-05-22T08:48:13.916Z,46.9688
2019-05-22T09:19:54.995Z,53.3104
2019-05-22T09:39:32.934Z,46.2654
2019-05-22T09:48:09.633Z,46.8009
2019-05-22T10:00:09.163Z,43.4546
2019-05-22T10:00:09.163Z,45.0828
2019-05-22T10:03:01.376Z,40.8865
2019-05-22T10:08:28.025Z,43.5080
2019-05-22T10:19:23.264Z,40.8988
2019-05-22T10:37:23.587Z,37.0794
2019-05-22T10:43:00.726Z,34.3618
2019-05-22T10:46:02.375Z,35.7259
2019-05-22T11:00:20.908Z,37.0336
2019-05-22T11:03:04.813Z,40.5371
2019-05-22T11:06:05.696Z,34.6944
2019-05-22T11:09:00.567Z,39.5300
2019-05-22T11:11:45.480Z,35.6832
2019-05-22T11:14:34.974Z,35.7519
2019-05-22T11:17:18.964Z,37.4792
2019-05-22T11:33:58.808Z,30.8598
2019-05-22T11:42:05.754Z,37.1725
2019-05-22T11:55:45.391Z,42.1668
2019-05-22T12:01:07.447Z,47.7241
2019-05-22T12:11:56.766Z,41.2421
2019-05-22T12:20:03.735Z,47.2709
2019-05-22T12:25:28.835Z,43.0091
2019-05-22T12:28:27.158Z,43.3570
2019-05-22T12:33:54.477Z,40.4425
2019-05-22T12:42:03.273Z,44.9088
2019-05-22T12:44:46.844Z,44.2908
2019-05-22T12:47:56.270Z,39.2432
2019-05-22T12:53:22.862Z,39.1913
2019-05-22T12:58:52.933Z,41.1154
2019-05-22T13:07:32.548Z,38.0743
2019-05-22T13:16:13.699Z,40.0061
2019-05-22T13:19:00.376Z,43.9170
2019-05-22T13:37:56.819Z,49.5003
2019-05-22T13:43:45.718Z,39.4430
2019-05-22T13:49:45.141Z,44.6860
2019-05-22T14:01:27.864Z,47.9545
2019-05-22T14:04:11.850Z,46.4881
2019-05-22T14:06:58.486Z,47.8843
2019-05-22T14:09:57.153Z,47.6646
2019-05-22T14:12:39.759Z,49.0532
2019-05-22T14:15:25.813Z,44.8966
2019-05-22T14:18:22.661Z,41.8570
2019-05-22T14:21:12.697Z,48.4474
2019-05-22T14:23:56.774Z,45.7328
2019-05-22T14:26:39.787Z,48.9052
2019-05-22T14:29:22.850Z,47.9911
2019-05-22T14:35:06.039Z,44.6632
2019-05-22T14:37:49.802Z,43.2471
2019-05-22T14:40:31.778Z,43.1113
2019-05-22T14:43:13.782Z,46.2425
2019-05-22T14:46:02.167Z,43.4852
2019-05-22T14:48:46.762Z,44.8585
2019-05-22T14:51:29.472Z,51.0475
2019-05-22T14:54:12.815Z,49.0669
2019-05-22T14:56:57.680Z,52.6955
2019-05-22T14:59:40.792Z,54.5541
2019-05-22T15:02:24.013Z,49.9046
2019-05-22T15:05:12.792Z,49.1249
2019-05-22T15:07:56.653Z,48.6687
2019-05-22T15:10:40.314Z,49.1798
2019-05-22T15:13:23.868Z,47.9393
2019-05-22T15:16:07.821Z,50.2571
2019-05-22T15:18:50.194Z,53.3471
2019-05-22T15:21:33.942Z,54.6838
2019-05-22T15:28:46.418Z,51.6167
2019-05-22T15:31:29.958Z,49.4835
2019-05-22T15:34:13.971Z,57.6684
2019-05-22T15:37:02.934Z,53.9742
2019-05-22T15:39:47.510Z,54.1024
2019-05-22T15:42:57.241Z,51.5785
2019-05-22T15:49:12.406Z,54.0276
2019-05-22T15:52:02.674Z,52.8389
2019-05-22T15:54:45.886Z,49.3858
2019-05-22T15:57:30.108Z,58.2773
2019-05-22T16:00:19.344Z,51.0658
2019-05-22T16:03:26.916Z,52.4437
2019-05-22T16:06:10.867Z,50.2007
2019-05-22T16:08:55.008Z,46.9276
2019-05-22T16:11:38.966Z,48.2368
2019-05-22T16:14:22.882Z,48.5573
2019-05-22T16:17:07.751Z,43.8148
2019-05-22T16:19:52.327Z,45.5131
2019-05-22T16:22:36.182Z,47.8996
2019-05-22T16:25:20.778Z,47.8904
2019-05-22T16:28:06.308Z,49.2134
2019-05-22T16:31:00.495Z,44.2634
2019-05-22T16:33:55.203Z,42.6245
2019-05-22T16:36:39.958Z,37.2274
2019-05-22T16:39:29.226Z,47.4281
2019-05-22T16:42:12.040Z,40.4105
2019-05-22T16:44:57.416Z,43.4806
2019-05-22T16:51:23.134Z,43.9475
2019-05-22T16:54:06.760Z,40.7752
2019-05-22T16:56:48.817Z,38.2406
2019-05-22T16:59:36.609Z,39.0585
2019-05-22T17:02:19.955Z,41.2619
2019-05-22T17:05:03.920Z,41.7227
2019-05-22T17:07:47.798Z,37.1435
2019-05-22T17:10:39.890Z,45.2308
2019-05-22T17:13:31.504Z,39.3515
2019-05-22T17:16:13.895Z,36.9421
2019-05-22T17:19:27.772Z,37.6577
2019-05-22T17:22:12.851Z,39.6139
2019-05-22T17:24:55.930Z,49.2363
2019-05-22T17:31:37.299Z,40.9125
2019-05-22T17:31:37.299Z,40.8621
2019-05-22T17:34:20.804Z,43.3585
2019-05-22T17:37:14.911Z,46.4286
2019-05-22T17:39:59.756Z,42.9999
2019-05-22T17:42:42.267Z,42.0752
2019-05-22T17:45:28.714Z,47.0191
2019-05-22T17:48:11.500Z,53.4386
2019-05-22T17:50:54.751Z,48.5664
2019-05-22T17:53:37.852Z,44.0223
2019-05-22T17:56:50.957Z,53.8857
2019-05-22T17:59:53.031Z,48.5176
2019-05-22T18:02:47.468Z,53.3333
2019-05-22T18:05:32.506Z,49.9641
2019-05-22T18:08:22.256Z,52.3033
2019-05-22T18:11:07.437Z,58.4451
2019-05-22T18:13:49.941Z,54.5815
2019-05-22T18:16:34.118Z,61.2482
2019-05-22T18:19:25.888Z,71.9966
2019-05-22T18:22:10.729Z,74.8440
2019-05-22T18:24:54.648Z,79.4873
2019-05-22T18:27:38.999Z,77.8668
2019-05-22T18:30:23.374Z,83.5843
2019-05-22T18:33:07.286Z,81.1307
2019-05-22T18:35:51.436Z,71.9142
2019-05-22T18:38:34.964Z,77.9950
2019-05-22T18:41:18.846Z,86.6560
2019-05-22T18:44:01.968Z,86.6056
2019-05-22T18:46:45.802Z,87.8996
2019-05-22T18:49:28.859Z,88.9220
2019-05-22T18:52:11.856Z,89.3050
2019-05-22T18:54:54.823Z,90.7103
2019-05-22T18:57:37.826Z,89.3004
2019-05-22T19:00:20.862Z,90.5745
2019-05-22T19:03:03.814Z,90.5547
2019-05-22T19:05:46.795Z,91.0399
2019-05-22T19:08:28.781Z,92.0165
2019-05-22T19:11:11.892Z,92.1614
2019-05-22T19:13:55.889Z,92.8298
2019-05-22T19:16:39.833Z,93.5821
2019-05-22T19:19:25.867Z,88.8792
2019-05-22T19:22:14.361Z,83.2853
2019-05-22T19:24:57.956Z,81.2161
2019-05-22T19:27:44.628Z,82.5895
2019-05-22T19:30:27.994Z,80.9323
2019-05-22T19:33:14.883Z,78.7350
2019-05-22T19:36:00.642Z,79.2035
2019-05-22T19:38:44.741Z,75.4025
2019-05-22T19:41:27.830Z,77.5402
2019-05-22T19:44:12.640Z,79.5331
2019-05-22T19:46:55.559Z,75.4849
2019-05-22T19:49:38.478Z,80.6622
2019-05-22T19:52:22.779Z,76.9314
2019-05-22T19:55:09.676Z,72.7382
2019-05-22T19:57:52.539Z,77.2168
2019-05-22T20:00:35.873Z,77.1069
2019-05-22T20:03:20.265Z,78.5611
2019-05-22T20:06:03.826Z,77.6410
2019-05-22T20:08:48.048Z,77.2335
2019-05-22T20:11:31.856Z,78.2315
2019-05-22T20:14:15.219Z,83.9643
2019-05-22T20:16:58.833Z,84.2969
2019-05-22T20:19:41.919Z,84.1703
2019-05-22T20:22:25.842Z,77.9065
2019-05-22T20:25:09.034Z,80.8377
2019-05-22T20:27:53.022Z,86.7842
2019-05-22T20:30:36.553Z,82.7787
2019-05-22T20:33:19.564Z,85.3010
2019-05-22T20:36:02.560Z,84.8508
2019-05-22T20:38:45.577Z,86.8376
2019-05-22T20:41:28.535Z,86.7826
2019-05-22T20:44:12.384Z,90.5226
2019-05-22T20:46:55.657Z,86.1799
2019-05-22T20:49:38.591Z,90.0755
2019-05-22T20:52:21.827Z,88.8426
2019-05-22T20:55:04.491Z,84.9836
2019-05-22T20:57:48.494Z,89.7231
2019-05-22T21:00:31.658Z,90.0526
2019-05-22T21:03:15.454Z,90.9438
2019-05-22T21:06:02.282Z,91.5587
2019-05-22T21:08:46.973Z,90.2571
2019-05-22T21:11:32.445Z,91.3848
2019-05-22T21:14:18.319Z,91.9799
2019-05-22T21:17:03.621Z,90.9590
2019-05-22T21:19:47.795Z,92.7428
2019-05-22T21:22:31.262Z,92.9397
2019-05-22T21:25:15.413Z,93.8918
2019-05-22T21:27:59.044Z,93.8613
2019-05-22T21:30:42.436Z,92.1904
2019-05-22T21:33:26.418Z,92.5643
2019-05-22T21:36:09.484Z,90.4692
2019-05-22T21:38:52.591Z,92.0439
2019-05-22T21:41:35.482Z,89.6208
2019-05-22T21:44:18.787Z,88.1392
2019-05-22T21:47:01.570Z,89.2225
2019-05-22T21:49:44.608Z,91.0597
2019-05-22T21:52:27.516Z,91.8975
2019-05-22T21:55:10.679Z,93.8643
2019-05-22T21:57:53.470Z,91.7922
2019-05-22T22:00:36.587Z,92.1584
2019-05-22T22:03:19.887Z,91.9295
2019-05-22T22:06:03.641Z,93.4356
2019-05-22T22:08:46.466Z,92.0027
2019-05-22T22:11:30.258Z,92.3186
2019-05-22T22:14:13.674Z,94.8363
2019-05-22T22:16:57.126Z,94.6853
2019-05-22T22:19:41.407Z,93.7636
2019-05-22T22:22:25.655Z,93.4340
2019-05-22T22:25:10.305Z,94.2077
2019-05-22T22:27:53.451Z,94.3084
2019-05-22T22:30:37.710Z,92.9213
2019-05-22T22:33:21.733Z,93.8872
2019-05-22T22:36:04.270Z,94.8943
2019-05-22T22:38:48.733Z,95.1049
2019-05-22T22:41:33.345Z,94.9813
2019-05-22T22:44:17.202Z,94.8531
2019-05-22T22:47:01.268Z,94.9538
2019-05-22T22:49:45.790Z,95.3765
2019-05-22T22:52:29.274Z,95.6558
2019-05-22T22:55:12.542Z,96.5347
2019-05-22T22:57:55.266Z,96.9650
2019-05-22T23:00:40.471Z,97.3114
2019-05-22T23:03:24.867Z,97.4868
2019-05-22T23:06:09.607Z,97.4868
2019-05-22T23:08:53.721Z,98.0896
2019-05-22T23:15:07.162Z,98.4848
2019-05-22T23:15:07.162Z,98.4283
2019-05-22T23:17:51.409Z,98.2238
2019-05-22T23:20:36.899Z,97.3114
2019-05-22T23:23:22.004Z,96.8551
2019-05-22T23:26:06.501Z,96.5988
2019-05-22T23:28:55.077Z,96.8368
2019-05-22T23:31:39.494Z,95.4360
2019-05-22T23:34:22.198Z,94.7540
2019-05-22T23:37:06.242Z,95.6283
2019-05-22T23:39:50.273Z,95.5581
2019-05-22T23:42:33.776Z,95.7565
2019-05-22T23:45:16.604Z,95.1339
2019-05-22T23:47:59.517Z,94.7753
2019-05-22T23:50:42.524Z,94.8089
2019-05-22T23:53:25.761Z,95.2667
2019-05-22T23:56:10.090Z,95.4772
2019-05-22T23:58:54.735Z,95.5962
